Time;durP1;ratioP1;P1;durP2;ratioP2;P2;SDS_P1;SDS_P2;PMS_P1;PMS_P2;Temp;Humidity;BMP_temperature;BMP_pressure;BME280_temperature;BME280_humidity;BME280_pressure;Samples;Min_cycle;Max_cycle;Signal;HPM_P1;HPM_P2
2022/01/21 00:00:21;;;;;;;;;8.00;4.25;;;;;4.58;84.17;103335.19;5118010;27;45453;-66
2022/01/21 00:02:46;;;;;;;;;7.25;6.00;;;;;4.74;84.66;103361.13;5118253;27;45340;-66
2022/01/21 00:05:12;;;;;;;;;4.25;2.25;;;;;4.72;83.86;103352.34;5118774;27;45352;-66
2022/01/21 00:07:39;;;;;;;;;5.00;3.00;;;;;4.71;84.09;103353.16;5117736;27;45556;-66
2022/01/21 00:10:06;;;;;;;;;3.00;2.00;;;;;4.69;83.75;103355.72;5118227;27;46635;-66
2022/01/21 00:12:33;;;;;;;;;8.25;3.75;;;;;4.73;84.20;103361.94;5118751;27;45294;-66
2022/01/21 00:14:58;;;;;;;;;7.50;4.00;;;;;4.72;84.18;103360.19;5135237;27;45285;-66
2022/01/21 00:17:25;;;;;;;;;1.25;1.25;;;;;4.67;84.06;103343.41;5139396;27;45383;-66
2022/01/21 00:30:06;;;;;;;;;6.25;1.75;;;;;4.83;83.90;103365.84;5138936;27;46690;-66
2022/01/21 00:30:54;;;;;;;;;5.25;3.00;;;;;5.00;83.19;103366.59;5118199;27;45820;-66
2022/01/21 00:33:19;;;;;;;;;4.50;2.25;;;;;4.93;83.38;103359.31;5117405;27;45289;-66
2022/01/21 00:35:44;;;;;;;;;7.50;4.50;;;;;4.98;83.25;103366.53;5118480;27;45367;-66
2022/01/21 00:38:10;;;;;;;;;3.25;2.50;;;;;5.03;83.38;103377.16;5118523;27;45370;-66
2022/01/21 00:40:36;;;;;;;;;7.50;2.50;;;;;4.99;83.76;103360.44;5118047;27;45971;-66
2022/01/21 00:45:33;;;;;;;;;10.75;5.50;;;;;4.86;83.04;103325.09;5118102;27;45264;-66
2022/01/21 00:47:59;;;;;;;;;3.00;3.00;;;;;4.96;84.05;103346.38;5120828;27;45293;-66
2022/01/21 00:50:24;;;;;;;;;2.75;2.75;;;;;4.92;83.21;103334.91;5121807;27;45601;-66
2022/01/21 00:52:50;;;;;;;;;7.25;3.25;;;;;4.92;83.29;103342.75;5103103;27;45404;-66
2022/01/21 00:55:15;;;;;;;;;5.75;3.75;;;;;4.93;83.33;103351.47;5121675;27;45713;-66
2022/01/21 00:57:41;;;;;;;;;7.75;2.50;;;;;4.90;83.40;103359.19;5121809;27;45296;-66
2022/01/21 01:00:09;;;;;;;;;7.00;6.00;;;;;4.69;83.49;103328.69;5121556;27;45437;-66
2022/01/21 01:02:35;;;;;;;;;3.00;2.00;;;;;4.75;83.78;103342.03;5120497;27;45233;-66
2022/01/21 01:05:01;;;;;;;;;6.50;4.50;;;;;4.71;83.61;103346.22;5121663;27;45228;-66
2022/01/21 01:07:26;;;;;;;;;6.00;3.50;;;;;4.78;83.67;103355.22;5121525;27;45594;-66
2022/01/21 01:09:54;;;;;;;;;1.50;1.00;;;;;4.78;83.89;103365.66;5119850;27;45424;-66
2022/01/21 01:12:54;;;;;;;;;3.50;2.00;;;;;4.69;84.09;103362.63;5121357;27;45422;-66
2022/01/21 01:19:56;;;;;;;;;1.25;1.25;;;;;4.69;84.08;103373.97;5120518;27;45315;-66
2022/01/21 01:20:54;;;;;;;;;1.00;1.00;;;;;4.64;84.21;103379.81;5120968;27;45390;-66
2022/01/21 01:23:39;;;;;;;;;7.00;2.00;;;;;4.52;84.33;103351.47;5121345;27;45495;-66
2022/01/21 01:28:49;;;;;;;;;1.25;1.25;;;;;4.60;83.53;103357.88;5116047;27;45286;-66
2022/01/21 01:31:14;;;;;;;;;6.00;2.00;;;;;4.65;84.32;103350.28;5120844;27;45677;-66
2022/01/21 01:33:41;;;;;;;;;3.50;2.00;;;;;4.66;84.59;103352.06;5121167;27;45590;-66
2022/01/21 01:36:08;;;;;;;;;3.25;1.50;;;;;4.79;83.86;103353.47;5120910;27;45300;-66
2022/01/21 01:41:10;;;;;;;;;3.50;0.50;;;;;4.82;83.82;103351.91;5120569;27;46252;-66
2022/01/21 01:51:47;;;;;;;;;4.00;1.75;;;;;4.89;83.77;103363.50;5120664;27;45696;-66
2022/01/21 01:54:14;;;;;;;;;4.00;2.00;;;;;4.90;83.24;103364.41;5120734;27;45422;-66
2022/01/21 01:56:50;;;;;;;;;3.00;2.00;;;;;4.92;83.32;103367.97;5119596;27;45331;-66
2022/01/21 01:59:16;;;;;;;;;1.00;0.00;;;;;4.83;83.41;103344.97;5119340;27;45204;-66
2022/01/21 02:01:42;;;;;;;;;6.25;2.00;;;;;4.93;83.18;103373.25;5120714;27;45442;-66
2022/01/21 02:04:07;;;;;;;;;4.25;1.25;;;;;4.94;83.61;103361.06;5120255;27;45174;-66
2022/01/21 02:06:33;;;;;;;;;2.75;1.50;;;;;4.91;83.52;103351.41;5120652;27;45777;-66
2022/01/21 02:08:59;;;;;;;;;5.00;3.50;;;;;5.01;83.23;103358.81;5120812;27;45310;-66
2022/01/21 02:11:25;;;;;;;;;6.00;2.00;;;;;4.82;83.18;103315.38;5120059;27;47364;-66
2022/01/21 02:13:57;;;;;;;;;4.00;3.00;;;;;5.04;83.09;103352.84;5127637;27;45399;-66
2022/01/21 02:21:38;;;;;;;;;4.00;2.25;;;;;5.07;83.41;103352.97;5119903;27;45543;-66
2022/01/21 02:24:11;;;;;;;;;5.25;2.00;;;;;5.05;83.11;103352.00;5120015;27;45317;-66
2022/01/21 02:26:37;;;;;;;;;1.75;0.75;;;;;5.08;82.43;103349.50;5120099;27;45353;-66
2022/01/21 02:29:05;;;;;;;;;0.75;0.75;;;;;5.02;82.79;103346.66;5120478;27;45355;-66
2022/01/21 02:31:32;;;;;;;;;1.00;1.00;;;;;5.07;83.00;103350.34;5119936;27;47075;-67
2022/01/21 02:33:58;;;;;;;;;5.25;1.00;;;;;5.08;83.11;103343.41;5119978;27;45216;-66
2022/01/21 02:36:23;;;;;;;;;0.75;0.75;;;;;4.97;82.99;103325.56;5119873;27;45374;-66
2022/01/21 02:38:49;;;;;;;;;4.00;1.50;;;;;5.11;82.78;103335.69;5118475;27;45193;-66
2022/01/21 02:41:14;;;;;;;;;1.00;1.00;;;;;5.12;82.61;103334.88;5119261;27;46351;-66
2022/01/21 02:43:40;;;;;;;;;2.00;2.00;;;;;5.23;82.47;103357.13;5119687;27;45391;-66
2022/01/21 02:46:08;;;;;;;;;1.25;1.00;;;;;5.22;82.38;103350.97;5118442;27;46412;-66
2022/01/21 02:48:37;;;;;;;;;3.25;1.25;;;;;5.17;82.05;103341.16;5119007;27;45277;-66
2022/01/21 02:51:05;;;;;;;;;1.00;1.00;;;;;5.21;81.90;103359.66;5119773;27;47304;-66
2022/01/21 02:53:41;;;;;;;;;1.75;1.00;;;;;5.13;82.68;103352.34;5119511;27;45423;-66
2022/01/21 02:56:09;;;;;;;;;2.00;0.25;;;;;5.18;82.84;103356.91;5119446;27;45493;-66
2022/01/21 02:58:35;;;;;;;;;2.25;1.00;;;;;5.22;82.26;103366.66;5120013;27;45464;-66
2022/01/21 03:01:03;;;;;;;;;1.75;1.00;;;;;5.18;82.25;103342.97;5119487;27;46616;-67
2022/01/21 03:03:29;;;;;;;;;2.00;2.00;;;;;5.22;81.82;103343.13;5118346;27;45307;-66
2022/01/21 03:05:54;;;;;;;;;1.75;1.75;;;;;5.23;81.91;103351.88;5119868;27;45250;-66
2022/01/21 03:08:19;;;;;;;;;5.25;2.00;;;;;5.11;82.49;103347.06;5119418;27;45422;-67
2022/01/21 03:10:45;;;;;;;;;2.50;2.00;;;;;5.11;82.70;103354.88;5118222;27;45463;-66
2022/01/21 03:13:11;;;;;;;;;3.50;3.00;;;;;5.09;82.85;103347.81;5118393;27;45454;-66
2022/01/21 03:15:37;;;;;;;;;3.25;1.75;;;;;4.97;82.87;103332.53;5119136;27;45437;-66
2022/01/21 03:18:02;;;;;;;;;2.75;2.75;;;;;5.05;82.84;103350.28;5119696;27;45601;-66
2022/01/21 03:20:27;;;;;;;;;3.75;2.00;;;;;5.04;82.96;103358.06;5119140;27;46250;-66
2022/01/21 03:22:53;;;;;;;;;1.00;1.00;;;;;5.02;82.49;103357.09;5119471;27;45284;-66
2022/01/21 03:25:18;;;;;;;;;0.00;0.00;;;;;4.95;82.06;103360.25;5118540;27;45766;-66
2022/01/21 03:27:44;;;;;;;;;0.00;0.00;;;;;4.65;82.47;103318.97;5118735;27;45304;-66
2022/01/21 03:30:10;;;;;;;;;3.00;1.00;;;;;4.85;82.66;103366.78;5119215;27;46335;-66
2022/01/21 03:32:36;;;;;;;;;3.00;1.00;;;;;4.82;83.04;103367.59;5119149;27;45306;-66
2022/01/21 03:35:02;;;;;;;;;2.00;0.75;;;;;4.68;83.36;103353.03;5119089;27;45308;-66
2022/01/21 03:37:28;;;;;;;;;1.25;0.25;;;;;4.73;83.41;103367.16;5119122;27;45396;-66
2022/01/21 03:39:53;;;;;;;;;0.00;0.00;;;;;4.59;83.76;103350.00;5119102;27;45804;-66
2022/01/21 03:42:18;;;;;;;;;2.00;0.75;;;;;4.61;83.79;103364.91;5118472;27;45337;-66
2022/01/21 03:44:44;;;;;;;;;1.25;0.00;;;;;4.50;84.12;103354.00;5118979;27;45284;-66
2022/01/21 03:47:09;;;;;;;;;1.75;0.00;;;;;4.54;83.72;103362.84;5119520;27;45317;-66
2022/01/21 03:49:40;;;;;;;;;1.00;0.00;;;;;4.43;83.93;103351.03;5118896;27;46473;-66
2022/01/21 03:52:07;;;;;;;;;2.75;1.25;;;;;4.45;84.79;103363.34;5117830;27;45328;-66
2022/01/21 03:54:35;;;;;;;;;2.75;1.00;;;;;4.51;84.56;103365.31;5118991;27;45397;-66
2022/01/21 03:57:00;;;;;;;;;6.50;2.50;;;;;4.53;84.59;103367.19;5118738;27;45277;-67
2022/01/21 03:59:26;;;;;;;;;4.00;3.00;;;;;4.55;84.26;103368.97;5117882;27;46579;-66
2022/01/21 04:01:51;;;;;;;;;6.00;3.00;;;;;4.54;84.03;103365.44;5118648;27;45368;-66
2022/01/21 04:04:16;;;;;;;;;3.75;2.25;;;;;4.49;83.24;103360.03;5118623;27;45803;-66
2022/01/21 04:06:42;;;;;;;;;5.75;4.00;;;;;4.33;84.44;103337.59;5119104;27;45436;-66
2022/01/21 04:09:07;;;;;;;;;5.00;2.75;;;;;4.14;84.35;103306.31;5118536;27;45359;-66
2022/01/21 04:11:33;;;;;;;;;3.25;3.00;;;;;4.40;84.13;103370.06;5118457;27;45408;-66
2022/01/21 04:13:58;;;;;;;;;2.00;2.00;;;;;4.27;84.83;103357.28;5126703;27;45440;-66
2022/01/21 04:16:23;;;;;;;;;2.50;2.25;;;;;4.33;85.13;103374.09;5119416;27;45430;-66
2022/01/21 04:18:49;;;;;;;;;1.00;1.00;;;;;4.25;85.41;103364.16;5118083;27;46543;-66
2022/01/21 04:21:14;;;;;;;;;3.75;1.00;;;;;4.32;85.66;103374.91;5117436;27;45373;-66
2022/01/21 04:23:40;;;;;;;;;3.50;1.75;;;;;4.36;85.46;103375.97;5121923;27;45293;-66
2022/01/21 04:26:06;;;;;;;;;3.00;1.75;;;;;4.42;85.43;103370.13;5122299;27;45307;-66
2022/01/21 04:28:31;;;;;;;;;1.00;1.00;;;;;4.40;84.28;103370.06;5121840;27;46527;-66
2022/01/21 04:30:58;;;;;;;;;3.00;1.00;;;;;4.33;84.88;103349.75;5121413;27;45387;-66
2022/01/21 04:33:24;;;;;;;;;3.50;2.00;;;;;4.46;84.82;103369.44;5121953;27;45359;-66
2022/01/21 04:35:49;;;;;;;;;1.75;1.00;;;;;4.45;84.31;103363.34;5122348;27;45218;-67
2022/01/21 04:38:18;;;;;;;;;1.25;1.00;;;;;4.45;84.76;103360.72;5121993;27;46488;-66
2022/01/21 04:40:51;;;;;;;;;3.75;1.00;;;;;4.47;84.24;103376.44;5121146;27;45298;-66
2022/01/21 04:48:44;;;;;;;;;3.00;3.00;;;;;4.41;84.18;103371.84;5121659;27;45725;-66
2022/01/21 04:53:40;;;;;;;;;1.25;1.00;;;;;4.49;84.59;103391.34;5121962;27;45422;-66
2022/01/21 04:56:05;;;;;;;;;1.00;1.00;;;;;4.51;84.46;103388.81;5121218;27;45269;-66
2022/01/21 04:58:31;;;;;;;;;4.00;2.00;;;;;4.47;84.09;103379.97;5121217;27;46424;-66
2022/01/21 05:00:56;;;;;;;;;3.50;2.00;;;;;4.49;84.00;103385.25;5119898;27;45410;-66
2022/01/21 05:03:22;;;;;;;;;1.25;1.25;;;;;4.45;85.41;103378.97;5120856;27;45594;-66
2022/01/21 05:05:47;;;;;;;;;1.50;1.00;;;;;4.48;85.43;103373.03;5121771;27;45314;-66
2022/01/21 05:08:24;;;;;;;;;6.00;1.00;;;;;4.52;85.12;103373.22;5121294;27;46367;-66
2022/01/21 05:10:50;;;;;;;;;1.00;1.00;;;;;4.58;84.85;103376.94;5100754;27;45373;-67
2022/01/21 05:13:18;;;;;;;;;2.25;2.00;;;;;4.51;85.02;103365.31;5102934;27;45654;-67
2022/01/21 05:15:59;;;;;;;;;6.00;2.00;;;;;4.56;84.72;103371.66;5121406;27;45391;-66
2022/01/21 05:18:25;;;;;;;;;8.75;3.00;;;;;4.57;84.58;103373.41;5121211;27;45713;-66
2022/01/21 05:20:50;;;;;;;;;3.00;3.00;;;;;4.44;83.87;103335.44;5121076;27;45377;-66
2022/01/21 05:23:16;;;;;;;;;3.00;2.00;;;;;4.55;85.16;103369.84;5120652;27;45442;-66
2022/01/21 05:25:41;;;;;;;;;5.00;2.50;;;;;4.29;85.98;103326.97;5121408;27;45329;-66
2022/01/21 05:28:07;;;;;;;;;4.25;3.00;;;;;4.24;85.94;103326.75;5121083;27;46457;-66
2022/01/21 05:30:33;;;;;;;;;3.25;2.00;;;;;4.30;85.79;103337.47;5120321;27;45335;-66
2022/01/21 05:32:58;;;;;;;;;4.75;4.75;;;;;4.44;86.17;103364.13;5120087;27;45465;-66
2022/01/21 05:35:24;;;;;;;;;6.25;4.75;;;;;4.48;86.00;103370.41;5120305;27;45405;-66
2022/01/21 05:37:49;;;;;;;;;12.33;11.00;;;;;4.54;85.60;103381.09;5120659;27;46568;-66
2022/01/21 05:40:16;;;;;;;;;10.00;9.33;;;;;4.52;86.38;103375.81;5121097;27;45381;-66
2022/01/21 05:42:42;;;;;;;;;14.50;12.00;;;;;4.44;86.73;103366.75;5119910;27;45361;-66
2022/01/21 05:47:34;;;;;;;;;7.25;6.00;;;;;4.52;86.85;103375.81;5119934;27;47580;-66
2022/01/21 05:49:59;;;;;;;;;12.00;7.50;;;;;4.61;86.93;103379.69;5120718;27;45422;-66
2022/01/21 05:52:37;;;;;;;;;11.00;7.33;;;;;4.71;86.47;103390.59;5120948;27;45733;-66
2022/01/21 05:55:03;;;;;;;;;6.50;4.75;;;;;4.65;86.46;103372.06;5120945;27;45325;-66
2022/01/21 05:57:30;;;;;;;;;7.75;6.00;;;;;4.82;85.85;103393.69;5119259;27;45502;-66
2022/01/21 05:59:56;;;;;;;;;6.75;6.75;;;;;4.85;85.35;103392.91;5119159;27;45454;-67
2022/01/21 06:02:21;;;;;;;;;7.67;7.67;;;;;4.81;86.21;103394.50;5120011;27;45470;-66
2022/01/21 06:04:50;;;;;;;;;7.00;5.00;;;;;4.78;86.14;103398.69;5120946;27;45433;-67
2022/01/21 06:07:16;;;;;;;;;7.33;4.00;;;;;4.77;86.36;103389.09;5119510;27;46305;-66
2022/01/21 06:09:43;;;;;;;;;11.67;9.67;;;;;4.72;86.80;103381.06;5120435;27;45388;-66
2022/01/21 06:12:08;;;;;;;;;10.00;7.00;;;;;4.70;86.57;103377.47;5120254;27;45344;-66
2022/01/21 06:14:34;;;;;;;;;12.00;8.00;;;;;4.80;87.26;103392.69;5133980;27;45304;-66
2022/01/21 06:16:59;;;;;;;;;9.67;8.00;;;;;4.83;86.82;103391.94;5141245;27;46297;-66
2022/01/21 06:19:25;;;;;;;;;8.67;8.00;;;;;4.88;87.23;103395.69;5141059;27;45409;-66
2022/01/21 06:21:50;;;;;;;;;11.67;7.33;;;;;4.89;86.82;103384.38;5123164;27;45378;-66
2022/01/21 06:24:16;;;;;;;;;8.00;8.00;;;;;4.71;86.95;103356.66;5120686;27;45235;-66
2022/01/21 06:26:41;;;;;;;;;12.67;8.00;;;;;4.92;86.51;103391.47;5120029;27;46160;-66
2022/01/21 06:29:09;;;;;;;;;14.00;11.33;;;;;4.96;87.27;103401.22;5118640;27;45460;-66
2022/01/21 06:31:34;;;;;;;;;14.67;13.67;;;;;5.02;87.21;103404.97;5119136;27;45499;-66
2022/01/21 06:33:59;;;;;;;;;30.00;22.00;;;;;4.98;87.60;103391.72;5118460;27;45458;-66
2022/01/21 06:36:25;;;;;;;;;6.33;6.33;;;;;4.96;86.97;103380.34;5101184;27;46455;-66
2022/01/21 06:38:50;;;;;;;;;11.00;8.33;;;;;5.09;86.78;103413.09;5119240;27;45232;-66
2022/01/21 06:41:16;;;;;;;;;15.33;9.00;;;;;5.01;87.39;103389.25;5119407;27;45397;-66
2022/01/21 06:43:42;;;;;;;;;8.00;7.00;;;;;5.13;87.27;103391.50;5119303;27;45500;-66
2022/01/21 06:46:10;;;;;;;;;18.67;13.67;;;;;5.06;87.39;103392.94;5118551;27;45658;-66
2022/01/21 06:48:35;;;;;;;;;14.67;13.67;;;;;4.99;87.98;103380.47;5118560;27;45358;-66
2022/01/21 06:51:00;;;;;;;;;13.25;11.75;;;;;5.06;87.00;103392.94;5119598;27;45411;-66
2022/01/21 06:53:26;;;;;;;;;9.33;6.67;;;;;5.14;87.38;103411.56;5118889;27;45458;-66
2022/01/21 06:55:51;;;;;;;;;16.00;14.00;;;;;4.99;86.95;103383.94;5099171;27;46251;-66
2022/01/21 06:58:17;;;;;;;;;13.00;13.00;;;;;5.01;86.85;103390.16;5118818;27;45368;-67
2022/01/21 07:00:42;;;;;;;;;7.00;7.00;;;;;5.01;87.76;103389.25;5117312;27;45538;-66
2022/01/21 07:03:08;;;;;;;;;11.00;11.00;;;;;5.12;87.34;103408.88;5119623;27;45350;-66
2022/01/21 07:05:33;;;;;;;;;8.67;8.67;;;;;5.17;88.00;103422.13;5119506;27;45479;-66
2022/01/21 07:08:00;;;;;;;;;2.33;2.33;;;;;5.16;88.11;103412.53;5118420;27;46294;-66
2022/01/21 07:10:27;;;;;;;;;11.33;9.67;;;;;5.23;87.10;103418.06;5118358;27;45399;-66
2022/01/21 07:12:52;;;;;;;;;20.33;14.67;;;;;5.19;88.05;103423.09;5118781;27;45466;-66
2022/01/21 07:15:19;;;;;;;;;11.67;11.33;;;;;5.16;88.04;103423.84;5128615;27;45453;-66
2022/01/21 07:17:46;;;;;;;;;14.33;11.67;;;;;5.11;88.37;103419.25;5118802;27;45422;-66
2022/01/21 07:20:12;;;;;;;;;12.33;9.00;;;;;5.14;87.75;103419.38;5119167;27;45340;-66
2022/01/21 07:22:38;;;;;;;;;15.00;13.67;;;;;5.06;88.06;103411.22;5119223;27;45154;-66
2022/01/21 07:25:05;;;;;;;;;19.00;16.67;;;;;5.14;89.08;103417.69;5118262;27;46577;-66
2022/01/21 07:27:31;;;;;;;;;159.67;145.00;;;;;5.08;88.55;103413.91;5118815;27;45331;-66
2022/01/21 07:29:56;;;;;;;;;24.33;21.67;;;;;5.06;87.77;103424.28;5119251;27;45537;-66
2022/01/21 07:32:21;;;;;;;;;19.00;14.00;;;;;4.95;88.47;103417.69;5119401;27;45320;-66
2022/01/21 07:34:47;;;;;;;;;22.67;15.33;;;;;4.86;89.11;103410.34;5098371;27;47391;-66
2022/01/21 07:37:12;;;;;;;;;12.00;12.00;;;;;4.92;88.59;103428.00;5118003;27;45328;-66
2022/01/21 07:39:38;;;;;;;;;17.00;13.67;;;;;4.85;88.12;103403.34;5117648;27;45418;-66
2022/01/21 07:42:04;;;;;;;;;20.67;15.33;;;;;4.77;89.29;103413.44;5118966;27;45230;-66
2022/01/21 07:44:29;;;;;;;;;21.67;21.00;;;;;4.77;89.13;103418.69;5118728;27;46495;-66
2022/01/21 07:46:55;;;;;;;;;21.33;18.00;;;;;4.78;89.21;103427.38;5118416;27;45443;-66
2022/01/21 07:49:20;;;;;;;;;20.67;18.33;;;;;4.72;88.79;103417.59;5118888;27;45418;-66
2022/01/21 07:51:46;;;;;;;;;22.33;20.00;;;;;4.85;89.02;103440.81;5118602;27;45285;-66
2022/01/21 07:54:12;;;;;;;;;44.67;36.67;;;;;4.81;87.71;103436.25;5117635;27;45475;-66
2022/01/21 07:56:37;;;;;;;;;33.33;25.00;;;;;4.63;89.14;103410.25;5116235;27;45261;-66
2022/01/21 07:59:06;;;;;;;;;26.67;24.33;;;;;4.96;88.95;103471.72;5118441;27;45355;-66
2022/01/21 08:01:31;;;;;;;;;29.33;24.00;;;;;4.93;89.30;103456.78;5116864;27;45558;-66
2022/01/21 08:03:56;;;;;;;;;32.33;30.33;;;;;4.66;88.96;103399.94;5117855;27;46334;-66
2022/01/21 08:06:22;;;;;;;;;25.33;24.00;;;;;5.04;89.05;103454.69;5116682;27;45338;-66
2022/01/21 08:08:48;;;;;;;;;29.33;20.67;;;;;5.17;88.96;103472.66;5118604;27;45438;-66
2022/01/21 08:11:13;;;;;;;;;24.00;21.33;;;;;5.22;89.07;103465.91;5116908;27;45390;-66
2022/01/21 08:13:39;;;;;;;;;26.67;25.00;;;;;5.23;88.40;103458.97;5121462;27;45531;-66
2022/01/21 08:16:04;;;;;;;;;20.00;15.00;;;;;5.34;87.96;103459.44;5123590;27;45314;-66
2022/01/21 08:18:30;;;;;;;;;21.00;17.67;;;;;5.39;88.63;103473.59;5118467;27;45256;-66
2022/01/21 08:20:55;;;;;;;;;26.00;19.00;;;;;5.29;88.01;103445.28;5118688;27;45261;-66
2022/01/21 08:23:21;;;;;;;;;20.00;17.33;;;;;5.37;88.23;103454.34;5117725;27;45683;-66
2022/01/21 08:25:46;;;;;;;;;28.33;18.33;;;;;5.44;88.30;103460.72;5116371;27;45449;-66
2022/01/21 08:28:12;;;;;;;;;22.33;14.33;;;;;5.18;88.02;103418.69;5118240;27;45442;-66
2022/01/21 08:30:38;;;;;;;;;24.00;19.00;;;;;5.60;87.79;103483.16;5117597;27;45437;-66
2022/01/21 08:33:04;;;;;;;;;22.00;16.67;;;;;5.63;87.48;103476.34;5117768;27;46086;-67
2022/01/21 08:35:30;;;;;;;;;30.33;16.67;;;;;5.71;87.62;103469.72;5117751;27;45522;-66
2022/01/21 08:37:55;;;;;;;;;11.67;9.33;;;;;5.72;87.24;103471.50;5118190;27;45231;-67
2022/01/21 08:40:22;;;;;;;;;30.00;23.00;;;;;5.81;87.03;103476.22;5118663;27;45443;-67
2022/01/21 08:42:47;;;;;;;;;34.00;27.33;;;;;5.85;86.61;103479.84;5115727;27;47139;-66
2022/01/21 08:45:13;;;;;;;;;87.00;60.33;;;;;5.60;86.86;103438.75;5112899;27;45461;-67
2022/01/21 08:47:42;;;;;;;;;56.33;43.33;;;;;5.90;86.54;103484.44;5117936;27;45407;-66
2022/01/21 08:50:14;;;;;;;;;43.33;38.33;;;;;5.65;86.67;103437.19;5116617;27;45228;-66
2022/01/21 08:52:41;;;;;;;;;41.00;35.33;;;;;5.98;86.42;103495.22;5117978;27;46615;-67
2022/01/21 08:55:19;;;;;;;;;40.00;37.33;;;;;6.01;86.21;103497.09;5117767;27;45514;-67
2022/01/21 08:57:46;;;;;;;;;23.00;21.00;;;;;6.03;86.35;103496.31;5117897;27;45394;-68
2022/01/21 09:00:14;;;;;;;;;21.67;14.33;;;;;6.09;86.07;103488.72;5118130;27;45344;-68
2022/01/21 09:02:40;;;;;;;;;19.33;16.33;;;;;6.10;85.72;103487.03;5117598;27;46431;-67
2022/01/21 09:05:06;;;;;;;;;25.33;24.33;;;;;6.06;86.28;103479.88;5116572;27;45475;-68
2022/01/21 09:07:31;;;;;;;;;23.00;20.67;;;;;6.11;85.81;103470.47;5118796;27;45384;-68
2022/01/21 09:09:57;;;;;;;;;21.33;14.00;;;;;6.07;85.41;103464.25;5121688;27;45450;-67
2022/01/21 09:12:22;;;;;;;;;15.33;12.67;;;;;6.13;85.48;103479.28;5121123;27;45620;-68
2022/01/21 09:14:48;;;;;;;;;16.25;12.50;;;;;6.07;86.09;103473.78;5136643;27;45443;-68
2022/01/21 09:17:13;;;;;;;;;14.25;10.25;;;;;6.17;85.58;103481.22;5142133;27;45239;-67
2022/01/21 09:19:39;;;;;;;;;15.00;8.00;;;;;6.22;85.34;103468.28;5142292;27;45364;-67
2022/01/21 09:22:05;;;;;;;;;37.33;25.67;;;;;6.35;85.23;103474.91;5141938;27;45457;-67
2022/01/21 09:24:33;;;;;;;;;20.33;14.67;;;;;6.58;84.66;103476.69;5141738;27;45174;-68
2022/01/21 09:27:05;;;;;;;;;19.33;16.33;;;;;7.07;83.09;103467.13;5141969;27;45516;-68
2022/01/21 09:29:31;;;;;;;;;25.67;17.33;;;;;7.43;80.81;103478.84;5142063;27;45174;-68
2022/01/21 09:31:57;;;;;;;;;16.67;14.00;;;;;7.36;80.77;103463.72;5141249;27;46308;-67
2022/01/21 09:34:25;;;;;;;;;24.00;20.00;;;;;7.73;81.85;103470.25;5141906;27;45473;-68
2022/01/21 09:36:51;;;;;;;;;20.00;19.33;;;;;7.85;79.04;103481.13;5141769;27;45376;-68
2022/01/21 09:39:17;;;;;;;;;32.67;29.33;;;;;7.66;78.80;103459.53;5142138;27;45268;-68
2022/01/21 09:41:43;;;;;;;;;23.00;19.00;;;;;7.71;78.47;103471.91;5141615;27;45409;-68
2022/01/21 09:44:14;;;;;;;;;27.00;21.67;;;;;7.81;79.10;103484.47;5141321;27;45212;-68
2022/01/21 09:46:44;;;;;;;;;23.00;18.33;;;;;7.70;79.47;103465.78;5141663;27;45308;-68
2022/01/21 09:52:04;;;;;;;;;20.33;17.33;;;;;7.93;78.89;103471.78;5141432;27;46197;-68
2022/01/21 09:54:32;;;;;;;;;21.67;18.00;;;;;7.96;78.74;103476.25;5141303;27;45429;-68
2022/01/21 09:56:59;;;;;;;;;25.33;20.67;;;;;7.94;78.53;103481.41;5141642;27;45318;-68
2022/01/21 09:59:28;;;;;;;;;23.33;19.67;;;;;7.96;78.65;103494.59;5141350;27;45809;-68
2022/01/21 10:01:58;;;;;;;;;28.33;20.67;;;;;7.98;78.47;103485.03;5141042;27;47290;-68
2022/01/21 10:04:34;;;;;;;;;24.00;21.33;;;;;7.98;78.81;103474.53;5141106;27;45382;-68
2022/01/21 10:07:00;;;;;;;;;23.00;19.00;;;;;8.01;78.00;103478.13;5141127;27;45316;-68
2022/01/21 10:09:26;;;;;;;;;17.67;16.00;;;;;8.23;78.11;103489.31;5141477;27;45411;-68
2022/01/21 10:11:53;;;;;;;;;19.00;15.00;;;;;8.18;77.89;103465.56;5141224;27;45995;-67
2022/01/21 10:14:27;;;;;;;;;24.67;14.00;;;;;8.40;77.23;103494.22;5129586;27;45347;-67
2022/01/21 10:16:55;;;;;;;;;14.00;11.25;;;;;8.46;76.48;103497.06;5120476;27;45387;-67
2022/01/21 10:19:27;;;;;;;;;17.33;14.33;;;;;8.51;76.72;103495.44;5120031;27;45380;-67
2022/01/21 10:22:12;;;;;;;;;10.00;10.00;;;;;8.41;76.56;103481.16;5120060;27;45295;-67
2022/01/21 10:25:04;;;;;;;;;18.00;17.00;;;;;8.48;75.93;103490.09;5120054;27;45419;-67
2022/01/21 10:27:39;;;;;;;;;17.67;13.67;;;;;8.44;75.77;103502.28;5016476;28;45279;-67
2022/01/21 10:30:23;;;;;;;;;14.00;11.33;;;;;8.45;75.72;103500.53;5016715;28;45460;-67
2022/01/21 10:32:49;;;;;;;;;9.00;9.00;;;;;8.46;76.07;103507.56;5016411;28;47127;-68
2022/01/21 10:35:23;;;;;;;;;8.75;6.00;;;;;8.40;75.46;103496.84;5016235;28;45404;-67
2022/01/21 10:37:50;;;;;;;;;8.50;8.50;;;;;8.34;75.89;103492.31;5016467;28;45428;-68
2022/01/21 10:40:18;;;;;;;;;8.75;8.75;;;;;8.34;74.88;103502.81;5016635;28;45608;-68
2022/01/21 10:42:45;;;;;;;;;15.00;9.00;;;;;8.16;75.70;103479.47;5016197;28;46718;-67
2022/01/21 10:45:11;;;;;;;;;12.25;9.75;;;;;7.88;76.29;103448.84;5016095;28;45497;-67
2022/01/21 10:47:40;;;;;;;;;11.67;10.33;;;;;8.07;76.59;103480.06;5016242;28;45351;-67
2022/01/21 10:50:11;;;;;;;;;13.00;11.00;;;;;8.23;76.18;103510.31;5016595;28;45538;-69
2022/01/21 10:52:39;;;;;;;;;11.75;8.00;;;;;8.21;76.35;103506.78;5016137;28;45567;-68
2022/01/21 10:55:25;;;;;;;;;6.00;6.00;;;;;8.18;76.58;103506.69;5016190;28;45355;-69
2022/01/21 10:58:12;;;;;;;;;10.25;9.25;;;;;8.15;76.77;103510.09;5016189;28;45408;-68
2022/01/21 11:00:57;;;;;;;;;19.33;14.33;;;;;8.22;76.69;103499.78;5016510;28;45375;-68
2022/01/21 11:03:22;;;;;;;;;15.33;10.00;;;;;8.22;76.32;103491.91;5021709;27;45722;-68
2022/01/21 11:05:49;;;;;;;;;22.33;19.67;;;;;8.18;76.79;103491.81;5119495;27;45402;-68
2022/01/21 11:08:15;;;;;;;;;20.00;14.67;;;;;8.14;76.89;103473.31;5119613;27;45434;-68
2022/01/21 11:10:50;;;;;;;;;14.00;12.00;;;;;8.18;76.49;103491.81;5119988;27;45462;-68
2022/01/21 11:13:18;;;;;;;;;17.00;12.67;;;;;8.22;77.21;103481.41;5119176;27;46210;-68
2022/01/21 11:16:12;;;;;;;;;12.25;11.00;;;;;8.23;76.90;103464.81;5119321;27;45387;-68
2022/01/21 11:19:04;;;;;;;;;20.67;16.33;;;;;8.35;77.05;103479.22;5116871;27;45751;-67
2022/01/21 11:21:44;;;;;;;;;18.00;15.67;;;;;8.37;76.69;103468.75;5119627;27;45300;-68
2022/01/21 11:24:11;;;;;;;;;18.33;15.00;;;;;8.42;76.75;103469.78;5118942;27;46527;-68
2022/01/21 11:26:37;;;;;;;;;11.50;7.75;;;;;8.44;76.20;103449.75;5119553;27;45306;-68
2022/01/21 11:29:04;;;;;;;;;15.67;14.33;;;;;8.64;75.98;103457.31;5119224;27;45571;-66
2022/01/21 11:31:31;;;;;;;;;14.00;11.67;;;;;8.59;75.35;103427.44;5118319;27;45294;-66
2022/01/21 11:33:56;;;;;;;;;19.00;14.33;;;;;8.75;74.65;103447.13;5118989;27;46440;-66
2022/01/21 11:36:21;;;;;;;;;12.50;11.00;;;;;8.69;74.84;103430.34;5119027;27;45693;-66
2022/01/21 11:38:49;;;;;;;;;10.25;6.50;;;;;8.74;74.38;103438.34;5119426;27;45529;-66
2022/01/21 11:41:15;;;;;;;;;13.25;10.50;;;;;8.59;73.62;103404.66;5119316;27;45291;-66
2022/01/21 11:43:52;;;;;;;;;19.00;14.67;;;;;8.75;74.36;103439.25;5118842;27;46250;-66
2022/01/21 11:48:51;;;;;;;;;19.00;14.33;;;;;8.93;74.81;103452.00;5119150;27;45228;-66
2022/01/21 11:51:38;;;;;;;;;14.75;11.75;;;;;8.94;75.05;103449.41;5100652;27;45531;-66
2022/01/21 11:54:13;;;;;;;;;12.00;9.75;;;;;9.04;74.11;103446.19;5118635;27;45456;-66
2022/01/21 11:56:43;;;;;;;;;35.33;30.00;;;;;9.11;74.63;103449.91;5118162;27;45438;-66
2022/01/21 11:59:32;;;;;;;;;30.33;24.67;;;;;9.12;74.13;103456.03;5118924;27;45355;-66
2022/01/21 12:02:18;;;;;;;;;15.67;10.67;;;;;9.10;74.32;103452.47;5118844;27;45343;-66
2022/01/21 12:04:55;;;;;;;;;14.67;11.67;;;;;9.06;73.97;103447.16;5118101;27;46178;-66
2022/01/21 12:07:33;;;;;;;;;11.67;8.67;;;;;9.04;74.26;103446.19;5118274;27;45261;-68
2022/01/21 12:10:00;;;;;;;;;11.75;11.25;;;;;9.06;73.22;103443.59;5118225;27;45343;-68
2022/01/21 12:12:45;;;;;;;;;23.67;18.67;;;;;9.03;73.57;103447.06;5119033;27;45337;-68
2022/01/21 12:15:20;;;;;;;;;19.00;14.00;;;;;9.01;73.38;103435.59;5118420;27;46499;-68
2022/01/21 12:17:51;;;;;;;;;18.00;14.33;;;;;9.06;73.79;103444.53;5118535;27;45400;-68